Time;durP1;ratioP1;P1;durP2;ratioP2;P2;SDS_P1;SDS_P2;PMS_P1;PMS_P2;Temp;Humidity;BMP_temperature;BMP_pressure;BME280_temperature;BME280_humidity;BME280_pressure;Samples;Min_cycle;Max_cycle;Signal;HPM_P1;HPM_P2
2023/07/06 00:00:31;;;;;;;10.48;7.10;;;;;;;20.97;62.32;93841.91;5050882;28;20127;-74
2023/07/06 00:02:57;;;;;;;7.03;6.30;;;;;;;21.09;62.42;93860.50;5051843;28;20041;-73
2023/07/06 00:05:23;;;;;;;11.10;5.45;;;;;;;21.19;62.62;93861.69;5049468;28;20186;-73
2023/07/06 00:07:48;;;;;;;10.25;6.47;;;;;;;21.25;61.94;93868.31;5053126;28;20555;-74
2023/07/06 00:10:14;;;;;;;7.10;5.82;;;;;;;21.13;62.23;93846.97;5050077;28;20028;-73
2023/07/06 00:12:39;;;;;;;7.22;5.45;;;;;;;21.18;61.85;93844.69;5052249;28;20087;-73
2023/07/06 00:15:05;;;;;;;6.50;5.85;;;;;;;21.25;62.31;93846.66;5049363;28;20082;-73
2023/07/06 00:17:31;;;;;;;5.63;5.13;;;;;;;21.16;62.65;93836.19;5052065;28;20882;-72
2023/07/06 00:19:56;;;;;;;7.35;6.00;;;;;;;21.10;62.97;93831.53;5051937;28;20021;-73
2023/07/06 00:22:23;;;;;;;6.45;5.65;;;;;;;21.21;63.26;93846.66;5051223;28;20129;-73
2023/07/06 00:24:48;;;;;;;6.38;5.47;;;;;;;21.15;63.00;93831.94;5051269;28;20036;-73
2023/07/06 00:27:15;;;;;;;7.40;5.88;;;;;;;21.26;62.87;93837.41;5050581;28;20040;-73
2023/07/06 00:29:56;;;;;;;6.20;5.60;;;;;;;21.26;62.84;93838.19;5051953;28;20519;-72
2023/07/06 00:32:28;;;;;;;7.90;5.85;;;;;;;21.22;63.06;93842.78;5045279;28;20043;-73
2023/07/06 00:34:55;;;;;;;7.13;5.50;;;;;;;21.11;62.99;93824.97;5050429;28;20380;-73
2023/07/06 00:37:21;;;;;;;8.63;5.50;;;;;;;21.08;62.78;93829.19;5050635;28;20028;-73
2023/07/06 00:39:50;;;;;;;8.25;6.03;;;;;;;21.11;63.02;93827.69;5052509;28;20048;-73
2023/07/06 00:42:17;;;;;;;6.60;5.85;;;;;;;21.06;62.78;93823.41;5051040;28;20036;-73
2023/07/06 00:44:57;;;;;;;8.88;5.22;;;;;;;21.00;63.00;93823.00;5037646;28;20033;-74
2023/07/06 00:47:32;;;;;;;6.50;5.90;;;;;;;21.06;62.84;93828.81;5055720;28;20175;-72
2023/07/06 00:50:02;;;;;;;6.65;5.03;;;;;;;20.99;62.98;93821.44;5051527;28;20083;-73
2023/07/06 00:52:29;;;;;;;10.65;5.57;;;;;;;20.98;63.13;93819.09;5053527;28;20364;-73
2023/07/06 00:54:55;;;;;;;7.22;5.68;;;;;;;21.05;63.13;93824.56;5054997;28;20419;-73
2023/07/06 00:57:22;;;;;;;5.50;5.00;;;;;;;20.96;62.50;93819.50;5054816;28;20040;-73
2023/07/06 00:59:49;;;;;;;6.40;5.00;;;;;;;21.10;62.43;93826.13;5050257;28;20394;-73
2023/07/06 01:02:17;;;;;;;8.15;5.43;;;;;;;20.98;62.27;93810.97;5055579;28;20033;-73
2023/07/06 01:04:44;;;;;;;9.07;5.18;;;;;;;21.00;62.47;93824.91;5053182;28;20048;-74
2023/07/06 01:07:16;;;;;;;7.82;5.80;;;;;;;20.89;62.56;93800.53;5054374;28;20155;-72
2023/07/06 01:09:41;;;;;;;6.00;5.50;;;;;;;20.72;62.76;93778.78;5050095;28;20036;-73
2023/07/06 01:12:09;;;;;;;6.18;5.55;;;;;;;20.90;62.62;93814.81;5054602;28;20042;-73
2023/07/06 01:14:35;;;;;;;5.85;4.97;;;;;;;20.82;62.77;93797.00;5051667;28;20414;-73
2023/07/06 01:17:14;;;;;;;6.75;4.97;;;;;;;20.89;62.98;93813.25;5055063;28;20028;-72
2023/07/06 01:19:42;;;;;;;5.88;5.28;;;;;;;20.70;62.95;93783.78;5051850;28;20021;-74
2023/07/06 01:22:17;;;;;;;7.22;5.22;;;;;;;20.90;62.43;93817.50;5053926;28;20045;-73
2023/07/06 01:25:37;;;;;;;6.97;5.38;;;;;;;20.85;62.99;93813.22;5052286;28;20044;-73
2023/07/06 01:28:40;;;;;;;5.93;5.30;;;;;;;20.82;62.69;93808.56;5029086;28;20041;-73
2023/07/06 01:31:34;;;;;;;6.50;5.35;;;;;;;20.81;62.87;93800.84;5052235;28;20040;-73
2023/07/06 01:34:12;;;;;;;7.97;5.40;;;;;;;20.77;63.06;93792.72;5053837;28;20047;-73
2023/07/06 01:36:46;;;;;;;7.00;5.47;;;;;;;20.76;63.24;93803.91;5054027;28;20109;-72
2023/07/06 01:39:20;;;;;;;5.80;5.20;;;;;;;20.78;63.05;93798.88;5052862;28;20070;-73
2023/07/06 01:41:59;;;;;;;7.85;6.03;;;;;;;20.79;63.11;93806.59;5053005;28;20874;-73
2023/07/06 01:44:25;;;;;;;6.25;5.65;;;;;;;20.71;62.85;93790.75;5053307;28;20037;-73
2023/07/06 01:46:53;;;;;;;9.55;5.72;;;;;;;20.58;62.83;93782.19;5052743;28;20381;-73
2023/07/06 01:49:19;;;;;;;8.38;5.65;;;;;;;20.67;63.11;93798.81;5053244;28;20059;-73
2023/07/06 01:51:59;;;;;;;5.72;5.00;;;;;;;20.68;63.32;93794.22;5050902;28;20062;-73
2023/07/06 01:54:39;;;;;;;5.93;5.25;;;;;;;20.67;63.06;93798.06;5053255;28;20058;-73
2023/07/06 01:57:13;;;;;;;7.85;5.70;;;;;;;20.65;62.98;93794.94;5053413;28;20440;-73
2023/07/06 01:59:49;;;;;;;6.33;5.70;;;;;;;20.75;62.11;93805.03;5051148;28;20491;-73
2023/07/06 02:02:16;;;;;;;10.20;5.60;;;;;;;20.73;62.51;93812.75;5053052;28;20273;-73
2023/07/06 02:04:43;;;;;;;6.65;5.57;;;;;;;20.63;62.35;93791.84;5052251;28;20081;-73
2023/07/06 02:07:11;;;;;;;8.70;5.65;;;;;;;20.57;62.23;93789.50;5051489;28;20076;-73
2023/07/06 02:09:44;;;;;;;7.53;5.93;;;;;;;20.68;62.25;93805.75;5052742;28;20035;-73
2023/07/06 02:12:12;;;;;;;7.85;4.90;;;;;;;20.58;62.44;93796.44;5053999;28;20119;-72
2023/07/06 02:14:38;;;;;;;7.45;5.40;;;;;;;20.60;62.91;93804.94;5052573;28;20044;-73
2023/07/06 02:17:04;;;;;;;6.63;4.80;;;;;;;20.50;62.80;93784.03;5052408;28;20024;-73
2023/07/06 02:19:30;;;;;;;7.15;5.38;;;;;;;20.54;62.21;93790.25;5053189;28;20064;-73
2023/07/06 02:21:55;;;;;;;8.82;5.50;;;;;;;20.60;62.36;93802.25;5053742;28;20171;-73
2023/07/06 02:24:21;;;;;;;5.75;4.80;;;;;;;20.51;62.52;93782.91;5050988;28;20045;-73
2023/07/06 02:26:46;;;;;;;6.45;4.78;;;;;;;20.56;62.71;93798.75;5053693;28;20506;-73
2023/07/06 02:29:14;;;;;;;6.90;5.10;;;;;;;20.50;62.88;93797.56;5051688;28;20119;-73
2023/07/06 02:31:40;;;;;;;7.25;5.72;;;;;;;20.53;63.03;93794.09;5053024;28;20036;-73
2023/07/06 02:34:05;;;;;;;7.32;5.65;;;;;;;20.53;62.86;93794.09;5051077;28;20105;-73
2023/07/06 02:36:31;;;;;;;7.90;5.80;;;;;;;20.42;63.16;93782.47;5051955;28;20046;-73
2023/07/06 02:38:57;;;;;;;6.80;6.10;;;;;;;20.47;62.99;93778.63;5050035;28;20051;-73
2023/07/06 02:41:22;;;;;;;8.52;5.53;;;;;;;20.41;63.12;93772.78;5053556;28;20064;-73
2023/07/06 02:43:47;;;;;;;7.32;5.32;;;;;;;20.40;63.53;93771.25;5051996;28;20124;-73
2023/07/06 02:46:19;;;;;;;8.90;5.40;;;;;;;20.50;63.54;93784.03;5053082;28;20036;-73
2023/07/06 02:48:45;;;;;;;7.13;5.43;;;;;;;20.52;63.39;93775.56;5052468;28;20122;-73
2023/07/06 02:51:10;;;;;;;7.20;5.68;;;;;;;20.53;63.54;93772.47;5051955;28;20132;-73
2023/07/06 02:53:36;;;;;;;7.53;5.60;;;;;;;20.56;63.44;93782.56;5044637;28;20032;-73
2023/07/06 02:56:03;;;;;;;9.65;6.18;;;;;;;20.48;63.72;93783.63;5051150;28;20484;-74
2023/07/06 02:58:28;;;;;;;6.80;5.50;;;;;;;20.46;63.88;93774.38;5052247;28;20024;-74
2023/07/06 03:00:55;;;;;;;6.35;5.70;;;;;;;20.42;64.11;93774.34;5050624;28;20049;-74
2023/07/06 03:03:23;;;;;;;6.97;6.28;;;;;;;20.49;63.82;93781.72;5053328;28;20474;-73
2023/07/06 03:05:49;;;;;;;10.35;6.13;;;;;;;20.54;63.60;93784.06;5050890;28;20031;-73
2023/07/06 03:08:15;;;;;;;9.07;6.25;;;;;;;20.59;63.87;93784.47;5049876;28;20032;-73
2023/07/06 03:10:46;;;;;;;8.85;6.18;;;;;;;20.51;63.85;93780.19;5054061;28;20020;-73
2023/07/06 03:13:15;;;;;;;8.82;6.13;;;;;;;20.58;63.87;93790.28;5051005;28;20119;-73
2023/07/06 03:15:41;;;;;;;8.63;7.10;;;;;;;20.53;63.75;93794.09;5052202;28;20389;-74
2023/07/06 03:18:07;;;;;;;10.43;6.82;;;;;;;20.46;64.19;93783.25;5049977;28;20276;-73
2023/07/06 03:20:36;;;;;;;9.13;7.15;;;;;;;20.47;64.00;93784.81;5052992;28;20131;-74
2023/07/06 03:23:02;;;;;;;9.73;7.25;;;;;;;20.35;64.60;93763.50;5050436;28;20028;-73
2023/07/06 03:25:28;;;;;;;8.88;6.80;;;;;;;20.45;64.49;93772.81;5051525;28;20071;-73
2023/07/06 03:27:54;;;;;;;8.98;8.02;;;;;;;20.49;64.63;93781.72;5050584;28;20119;-73
2023/07/06 03:30:23;;;;;;;8.48;7.18;;;;;;;20.41;64.62;93764.69;5050728;28;20044;-74
2023/07/06 03:32:49;;;;;;;10.02;6.20;;;;;;;20.54;64.25;93765.94;5051831;28;20122;-72
2023/07/06 03:35:14;;;;;;;9.18;6.43;;;;;;;20.56;64.71;93774.44;5049964;28;20121;-72
2023/07/06 03:37:45;;;;;;;8.52;6.68;;;;;;;20.57;64.73;93776.00;5051593;28;20029;-72
2023/07/06 03:40:11;;;;;;;10.45;7.05;;;;;;;20.49;64.73;93760.88;5048029;28;20028;-73
2023/07/06 03:42:39;;;;;;;8.13;6.30;;;;;;;20.60;64.88;93774.47;5050491;28;20043;-73
2023/07/06 03:45:05;;;;;;;10.50;6.65;;;;;;;20.56;65.42;93760.16;5050358;28;20028;-72
2023/07/06 03:47:33;;;;;;;8.85;6.63;;;;;;;20.53;65.19;93767.06;5049377;28;20028;-72
2023/07/06 03:49:59;;;;;;;9.32;7.10;;;;;;;20.62;64.83;93776.78;5050234;28;20865;-72
2023/07/06 03:52:24;;;;;;;7.75;6.93;;;;;;;20.58;64.61;93758.63;5051959;28;20345;-72
2023/07/06 03:54:50;;;;;;;9.18;6.40;;;;;;;20.76;64.24;93779.56;5049456;28;20401;-72
2023/07/06 03:57:16;;;;;;;9.50;7.28;;;;;;;20.77;64.44;93781.13;5052641;28;20093;-72
2023/07/06 03:59:43;;;;;;;11.13;7.00;;;;;;;20.80;63.96;93778.44;5048059;28;20382;-72
2023/07/06 04:02:09;;;;;;;9.13;7.80;;;;;;;20.78;64.10;93766.44;5045205;28;20500;-72
2023/07/06 04:04:35;;;;;;;9.73;7.18;;;;;;;20.84;63.94;93767.63;5050674;28;20032;-72
2023/07/06 04:07:01;;;;;;;7.30;6.55;;;;;;;20.87;63.86;93766.94;5048994;28;20396;-73
2023/07/06 04:09:28;;;;;;;8.50;7.22;;;;;;;20.90;64.15;93768.84;5047891;28;20029;-72
2023/07/06 04:11:54;;;;;;;9.02;7.75;;;;;;;20.92;63.85;93777.38;5051898;28;20557;-73
2023/07/06 04:14:25;;;;;;;9.82;8.07;;;;;;;21.00;63.76;93773.53;5050664;28;20519;-72
2023/07/06 04:16:56;;;;;;;9.25;7.70;;;;;;;20.95;63.74;93768.50;5056011;28;20617;-72
2023/07/06 04:19:23;;;;;;;8.68;7.40;;;;;;;21.07;64.18;93780.91;5054140;28;20032;-73
2023/07/06 04:21:49;;;;;;;9.57;7.45;;;;;;;21.13;64.20;93780.16;5054388;28;20429;-72
2023/07/06 04:24:16;;;;;;;8.63;7.80;;;;;;;21.12;63.94;93788.66;5053274;28;20029;-72
2023/07/06 04:26:42;;;;;;;8.95;7.85;;;;;;;21.04;64.43;93779.72;5046090;28;20044;-72
2023/07/06 04:29:10;;;;;;;9.45;8.13;;;;;;;21.06;64.50;93777.44;5052627;28;20518;-72
2023/07/06 04:31:37;;;;;;;13.80;9.00;;;;;;;21.18;64.22;93784.41;5055451;28;20024;-73
2023/07/06 04:34:03;;;;;;;13.50;9.77;;;;;;;21.11;63.49;93774.38;5053614;28;20470;-72
2023/07/06 04:36:33;;;;;;;17.10;9.05;;;;;;;21.26;62.94;93784.09;5055024;28;20025;-72
2023/07/06 04:38:59;;;;;;;13.40;9.05;;;;;;;21.14;64.00;93772.81;5053997;28;20357;-73
2023/07/06 04:41:25;;;;;;;13.10;9.50;;;;;;;21.16;64.25;93771.31;5054435;28;20040;-73
2023/07/06 04:43:52;;;;;;;14.10;9.70;;;;;;;21.30;64.10;93779.47;5054309;28;20481;-72
2023/07/06 04:46:18;;;;;;;11.20;8.93;;;;;;;21.34;62.84;93774.84;5051400;28;20184;-73
2023/07/06 04:48:44;;;;;;;11.07;9.10;;;;;;;21.25;63.40;93763.59;5054203;28;20147;-73
2023/07/06 04:51:10;;;;;;;12.20;8.27;;;;;;;21.31;62.68;93772.91;5068771;28;20569;-72
2023/07/06 04:53:37;;;;;;;9.80;8.85;;;;;;;21.35;62.91;93775.59;5054732;28;20428;-73
2023/07/06 04:56:03;;;;;;;9.90;8.80;;;;;;;21.26;61.59;93762.44;5053747;28;20035;-72
2023/07/06 04:58:29;;;;;;;13.43;9.48;;;;;;;21.34;63.07;93780.25;5054064;28;20021;-72
2023/07/06 05:00:55;;;;;;;12.43;9.25;;;;;;;21.34;62.97;93772.13;5052022;28;20040;-72
2023/07/06 05:03:20;;;;;;;14.75;9.85;;;;;;;21.22;63.04;93756.22;5054431;28;20041;-73
2023/07/06 05:05:46;;;;;;;9.93;7.70;;;;;;;21.31;62.79;93764.00;5052833;28;20103;-72
2023/07/06 05:08:16;;;;;;;10.05;7.68;;;;;;;21.40;61.54;93780.66;5052890;28;20044;-73
2023/07/06 05:10:50;;;;;;;9.20;7.95;;;;;;;21.43;61.24;93796.88;5048437;28;20021;-73
2023/07/06 05:13:15;;;;;;;10.00;7.15;;;;;;;21.44;61.36;93795.75;5052482;28;20126;-72
2023/07/06 05:15:41;;;;;;;10.00;8.27;;;;;;;21.45;61.10;93783.75;5053710;28;20560;-74
2023/07/06 05:18:06;;;;;;;16.60;8.70;;;;;;;21.56;60.58;93794.63;5052807;28;20638;-72
2023/07/06 05:20:33;;;;;;;12.40;8.90;;;;;;;21.24;61.92;93751.22;5053849;28;20033;-72
2023/07/06 05:22:59;;;;;;;14.18;9.60;;;;;;;21.45;61.26;93794.59;5052218;28;20395;-72
2023/07/06 05:25:26;;;;;;;12.68;9.30;;;;;;;21.35;62.84;93798.03;5053807;28;20024;-73
2023/07/06 05:27:52;;;;;;;15.27;9.82;;;;;;;21.56;62.58;93804.69;5050116;28;20119;-73
2023/07/06 05:30:19;;;;;;;11.38;9.15;;;;;;;21.64;62.01;93792.72;5053158;28;20040;-72
2023/07/06 05:32:44;;;;;;;13.57;9.82;;;;;;;21.81;61.81;93802.81;5052843;28;20041;-73
2023/07/06 05:35:10;;;;;;;12.50;8.85;;;;;;;21.60;60.33;93808.97;5052444;28;20035;-73
2023/07/06 05:37:36;;;;;;;17.52;10.55;;;;;;;21.52;62.79;93815.47;5055169;28;20144;-73
2023/07/06 05:40:04;;;;;;;10.90;9.10;;;;;;;21.67;61.73;93810.88;5052738;28;20032;-72
2023/07/06 05:42:30;;;;;;;12.07;8.57;;;;;;;21.69;61.36;93801.25;5053496;28;20043;-72
2023/07/06 05:44:56;;;;;;;10.35;7.60;;;;;;;21.38;61.87;93816.19;5052935;28;20036;-73
2023/07/06 05:47:21;;;;;;;12.10;7.22;;;;;;;21.22;62.95;93802.22;5053197;28;20539;-72
2023/07/06 05:49:47;;;;;;;7.68;6.90;;;;;;;21.44;62.54;93811.19;5052628;28;20110;-72
2023/07/06 05:52:12;;;;;;;7.72;6.93;;;;;;;21.37;62.36;93808.44;5054902;28;20032;-72
2023/07/06 05:54:39;;;;;;;7.70;6.95;;;;;;;21.30;61.74;93814.63;5051082;28;20721;-72
2023/07/06 05:57:06;;;;;;;8.55;7.18;;;;;;;21.18;62.81;93820.34;5053408;28;20051;-72
2023/07/06 05:59:32;;;;;;;11.57;7.07;;;;;;;20.90;63.99;93817.50;5052141;28;20036;-72
2023/07/06 06:01:58;;;;;;;9.13;7.78;;;;;;;21.07;64.30;93811.41;5054151;28;20035;-72
2023/07/06 06:04:27;;;;;;;12.85;7.45;;;;;;;21.16;64.92;93808.38;5052553;28;20040;-72
2023/07/06 06:06:55;;;;;;;11.32;7.68;;;;;;;21.32;63.95;93816.94;5053673;28;20036;-72
2023/07/06 06:09:23;;;;;;;11.57;8.00;;;;;;;21.13;64.24;93819.94;5052742;28;20480;-73
2023/07/06 06:11:49;;;;;;;14.32;8.98;;;;;;;21.35;62.82;93819.66;5053078;28;20028;-72
2023/07/06 06:14:15;;;;;;;13.45;9.30;;;;;;;21.53;62.91;93821.66;5051888;28;20511;-72
2023/07/06 06:16:41;;;;;;;13.73;7.25;;;;;;;21.63;61.90;93823.66;5054138;28;20021;-72
2023/07/06 06:19:07;;;;;;;10.20;6.57;;;;;;;21.74;61.74;93813.63;5049942;28;20044;-72
2023/07/06 06:21:33;;;;;;;10.40;6.57;;;;;;;21.64;59.72;93825.19;5044306;28;20041;-72
2023/07/06 06:24:00;;;;;;;7.13;6.43;;;;;;;21.59;60.37;93826.34;5052394;28;20036;-72
2023/07/06 06:26:27;;;;;;;7.65;5.78;;;;;;;21.87;61.56;93820.22;5051928;28;20550;-72
2023/07/06 06:28:53;;;;;;;8.20;6.43;;;;;;;21.91;61.13;93821.00;5051380;28;20020;-73
2023/07/06 06:31:19;;;;;;;9.70;6.57;;;;;;;21.77;60.18;93810.91;5053265;28;20021;-72
2023/07/06 06:33:45;;;;;;;8.60;6.50;;;;;;;21.96;60.84;93811.72;5052601;28;20091;-72
2023/07/06 06:36:15;;;;;;;7.95;6.60;;;;;;;22.17;62.00;93817.94;5052127;28;20041;-72
2023/07/06 06:38:42;;;;;;;8.15;7.20;;;;;;;22.08;61.12;93801.31;5053149;28;20149;-73
2023/07/06 06:41:08;;;;;;;11.15;6.72;;;;;;;22.23;60.34;93811.00;5052171;28;20051;-73
2023/07/06 06:43:37;;;;;;;8.93;7.03;;;;;;;22.34;59.12;93805.56;5052056;28;20147;-72
2023/07/06 06:46:03;;;;;;;11.23;6.88;;;;;;;22.46;60.17;93799.78;5053930;28;20124;-73
2023/07/06 06:48:29;;;;;;;7.25;6.32;;;;;;;22.52;58.54;93803.66;5051022;28;20064;-72
2023/07/06 06:50:56;;;;;;;8.68;6.63;;;;;;;22.56;58.33;93800.94;5053646;28;20131;-72
2023/07/06 06:53:22;;;;;;;6.57;5.93;;;;;;;22.60;58.34;93786.22;5050997;28;20040;-72
2023/07/06 06:55:48;;;;;;;7.40;6.05;;;;;;;21.95;59.21;93789.28;5052504;28;20082;-72
2023/07/06 06:58:15;;;;;;;10.05;6.60;;;;;;;22.16;58.48;93783.88;5050591;28;20032;-72
2023/07/06 07:00:41;;;;;;;11.10;6.75;;;;;;;22.43;60.25;93797.06;5051770;28;20038;-72
2023/07/06 07:03:10;;;;;;;10.13;6.10;;;;;;;22.48;58.22;93799.41;5051707;28;20045;-72
2023/07/06 07:05:35;;;;;;;7.22;6.53;;;;;;;22.60;58.02;93785.44;5051821;28;20032;-73
2023/07/06 07:08:01;;;;;;;9.88;6.78;;;;;;;22.46;57.92;93788.16;5052424;28;20050;-73
2023/07/06 07:10:26;;;;;;;9.02;5.35;;;;;;;22.52;57.75;93770.34;5052285;28;20051;-72
2023/07/06 07:12:53;;;;;;;7.40;6.07;;;;;;;22.78;57.90;93780.75;5051499;28;20480;-72
2023/07/06 07:15:19;;;;;;;8.18;4.95;;;;;;;22.68;57.57;93784.28;5051833;28;20032;-72
2023/07/06 07:17:45;;;;;;;6.38;5.80;;;;;;;22.75;56.27;93781.53;5049598;28;20033;-73
2023/07/06 07:20:13;;;;;;;5.40;4.75;;;;;;;22.05;55.82;93783.09;5053682;28;20244;-72
2023/07/06 07:22:39;;;;;;;6.38;4.90;;;;;;;22.20;56.10;93792.78;5051850;28;20028;-73
2023/07/06 07:25:06;;;;;;;6.80;4.80;;;;;;;22.41;54.40;93799.38;5044848;28;20032;-73
2023/07/06 07:27:34;;;;;;;6.30;5.53;;;;;;;22.57;54.84;93786.22;5047757;28;20641;-72
2023/07/06 07:30:04;;;;;;;8.93;5.80;;;;;;;22.65;55.90;93777.69;5053294;28;20033;-73
2023/07/06 07:32:30;;;;;;;6.40;5.05;;;;;;;22.83;56.77;93785.03;5048283;28;20044;-73
2023/07/06 07:34:57;;;;;;;9.55;6.30;;;;;;;22.97;56.84;93774.94;5052304;28;20058;-74
2023/07/06 07:37:23;;;;;;;6.47;5.80;;;;;;;23.24;56.32;93796.13;5052309;28;20036;-73
2023/07/06 07:39:51;;;;;;;7.47;5.07;;;;;;;23.33;54.27;93785.63;5050949;28;20036;-74
2023/07/06 07:42:18;;;;;;;5.72;5.13;;;;;;;23.43;52.84;93790.25;5050031;28;20525;-73
2023/07/06 07:44:47;;;;;;;6.20;5.43;;;;;;;23.54;52.94;93796.44;5053050;28;20037;-72
2023/07/06 07:47:18;;;;;;;6.93;4.55;;;;;;;23.65;52.35;93789.00;5067008;28;20246;-73
2023/07/06 07:49:47;;;;;;;6.97;5.53;;;;;;;23.58;52.71;93789.03;5053088;28;20020;-74
2023/07/06 07:52:14;;;;;;;7.43;5.47;;;;;;;23.59;53.06;93785.16;5057882;28;20512;-73
2023/07/06 07:54:40;;;;;;;7.53;6.72;;;;;;;23.72;52.29;93799.81;5055089;28;20518;-73
2023/07/06 07:57:06;;;;;;;6.97;6.25;;;;;;;23.57;52.95;93790.19;5054308;28;20045;-73
2023/07/06 07:59:33;;;;;;;8.60;5.90;;;;;;;23.67;54.24;93792.09;5055171;28;20051;-73
2023/07/06 08:01:59;;;;;;;7.68;6.07;;;;;;;23.55;51.99;93784.41;5055825;28;20583;-73
2023/07/06 08:04:24;;;;;;;7.55;4.97;;;;;;;23.61;53.10;93782.84;5054713;28;20973;-72
2023/07/06 08:06:50;;;;;;;7.72;5.78;;;;;;;23.56;51.78;93789.41;5054710;28;20056;-72
2023/07/06 08:09:17;;;;;;;7.43;6.03;;;;;;;23.62;51.27;93791.72;5055073;28;20416;-73
2023/07/06 08:11:46;;;;;;;8.98;6.18;;;;;;;23.54;51.11;93793.72;5054371;28;20467;-72
2023/07/06 08:14:13;;;;;;;7.50;5.93;;;;;;;23.56;50.61;93781.28;5054529;28;20034;-72
2023/07/06 08:16:40;;;;;;;8.75;6.63;;;;;;;23.59;52.92;93774.31;5052186;28;20020;-73
2023/07/06 08:19:07;;;;;;;9.90;6.20;;;;;;;23.77;55.66;93785.81;5052806;28;20045;-73
2023/07/06 08:21:32;;;;;;;7.38;5.70;;;;;;;23.88;52.04;93791.97;5056586;28;20033;-72
2023/07/06 08:23:59;;;;;;;5.97;5.38;;;;;;;23.95;51.81;93794.63;5054750;28;20417;-72
2023/07/06 08:26:24;;;;;;;10.02;6.38;;;;;;;23.75;51.95;93761.03;5053627;28;20095;-72
2023/07/06 08:28:51;;;;;;;8.45;5.78;;;;;;;23.74;51.58;93773.06;5053334;28;20112;-73
2023/07/06 08:31:18;;;;;;;7.30;6.32;;;;;;;23.87;49.88;93789.63;5056601;28;20475;-73
2023/07/06 08:33:46;;;;;;;6.85;6.05;;;;;;;23.92;50.86;93790.00;5054459;28;20741;-73
2023/07/06 08:36:12;;;;;;;7.82;6.22;;;;;;;23.98;51.15;93795.78;5054825;28;20147;-73
2023/07/06 08:38:38;;;;;;;7.53;5.93;;;;;;;23.95;51.85;93791.91;5048561;28;20036;-72
2023/07/06 08:41:26;;;;;;;8.82;6.25;;;;;;;24.00;50.05;93796.91;5055057;28;20036;-73
2023/07/06 08:43:53;;;;;;;9.80;6.05;;;;;;;23.87;49.22;93786.94;5053922;28;20047;-73
2023/07/06 08:46:20;;;;;;;9.10;6.05;;;;;;;23.92;49.02;93791.94;5053762;28;20068;-73
2023/07/06 08:48:46;;;;;;;7.15;6.15;;;;;;;23.86;49.65;93778.00;5054136;28;20048;-73
2023/07/06 08:51:26;;;;;;;8.88;6.32;;;;;;;23.97;49.13;93786.84;5053250;28;20452;-72
2023/07/06 08:54:02;;;;;;;6.55;5.57;;;;;;;24.04;49.60;93782.56;5055559;28;20043;-73
2023/07/06 08:56:34;;;;;;;7.72;6.53;;;;;;;24.04;50.44;93785.28;5054560;28;20753;-72
2023/07/06 08:59:04;;;;;;;10.60;7.28;;;;;;;23.84;50.81;93758.63;5056219;28;20041;-72
2023/07/06 09:01:30;;;;;;;10.68;7.13;;;;;;;23.99;49.61;93775.59;5054970;28;20115;-73
2023/07/06 09:04:06;;;;;;;10.10;8.00;;;;;;;24.08;50.11;93777.88;5054802;28;20040;-73
2023/07/06 09:06:34;;;;;;;12.68;7.45;;;;;;;24.10;50.51;93783.69;5055449;28;20040;-74
2023/07/06 09:09:01;;;;;;;9.27;7.63;;;;;;;24.29;50.61;93788.59;5054996;28;20400;-73
2023/07/06 09:11:27;;;;;;;9.52;7.65;;;;;;;24.20;49.75;93791.00;5053964;28;20040;-73
2023/07/06 09:13:56;;;;;;;8.60;7.45;;;;;;;24.21;49.62;93793.31;5054288;28;20027;-72
2023/07/06 09:16:23;;;;;;;9.65;7.40;;;;;;;24.27;49.81;93788.22;5055752;28;20032;-74
2023/07/06 09:18:53;;;;;;;9.95;8.15;;;;;;;24.02;49.15;93774.78;5067611;28;20102;-73
2023/07/06 09:21:25;;;;;;;9.52;7.57;;;;;;;24.09;50.13;93772.03;5054502;28;20036;-73
2023/07/06 09:23:51;;;;;;;9.30;6.65;;;;;;;24.22;50.24;93784.00;5054360;28;20036;-73
2023/07/06 09:26:21;;;;;;;9.27;7.65;;;;;;;24.29;49.93;93783.19;5054203;28;20051;-73
2023/07/06 09:28:47;;;;;;;9.70;8.70;;;;;;;24.21;51.58;93754.50;5050900;28;20028;-73
2023/07/06 09:31:21;;;;;;;8.55;6.85;;;;;;;24.28;50.91;93746.28;5055536;28;20537;-73
2023/07/06 09:33:53;;;;;;;8.25;7.20;;;;;;;24.58;51.65;93781.75;5052387;28;20853;-74
2023/07/06 09:36:25;;;;;;;10.73;6.90;;;;;;;24.67;51.68;93775.84;5054916;28;20028;-73
2023/07/06 09:38:51;;;;;;;9.23;7.28;;;;;;;24.72;51.13;93781.66;5053767;28;20033;-75
2023/07/06 09:41:19;;;;;;;8.35;7.13;;;;;;;24.39;50.03;93750.44;5053866;28;20040;-73
2023/07/06 09:43:46;;;;;;;8.93;6.55;;;;;;;24.62;50.68;93779.78;5045881;28;20533;-73
2023/07/06 09:46:11;;;;;;;8.40;6.97;;;;;;;24.68;50.67;93777.38;5053607;28;20033;-74
2023/07/06 09:48:39;;;;;;;8.02;7.15;;;;;;;24.52;50.33;93748.03;5052016;28;20035;-73
2023/07/06 09:51:13;;;;;;;16.27;8.18;;;;;;;24.69;49.44;93776.97;5052749;28;20045;-73
2023/07/06 09:53:48;;;;;;;9.90;7.32;;;;;;;24.80;49.74;93772.22;5054214;28;20044;-74
2023/07/06 09:56:15;;;;;;;11.02;7.25;;;;;;;24.92;50.61;93783.78;5051703;28;20036;-73
2023/07/06 09:58:41;;;;;;;9.00;8.10;;;;;;;24.97;49.76;93769.75;5053252;28;20565;-73
2023/07/06 10:01:45;;;;;;;13.70;7.93;;;;;;;24.74;48.54;93762.97;5049887;28;20052;-73
2023/07/06 10:04:23;;;;;;;8.88;7.45;;;;;;;24.64;49.36;93766.53;5012701;28;20048;-73
2023/07/06 10:07:08;;;;;;;8.52;7.18;;;;;;;24.81;49.96;93765.63;5052121;28;20058;-73
2023/07/06 10:10:10;;;;;;;11.30;7.25;;;;;;;24.24;52.73;93672.19;5052073;28;20037;-72
2023/07/06 10:12:45;;;;;;;9.02;7.25;;;;;;;24.82;51.22;93767.16;5035410;28;20028;-73
2023/07/06 10:15:18;;;;;;;8.98;7.60;;;;;;;24.81;51.47;93760.19;5053084;28;20028;-73
2023/07/06 10:17:55;;;;;;;8.98;7.70;;;;;;;24.83;51.39;93760.53;5052196;28;20705;-73
2023/07/06 10:20:33;;;;;;;10.25;8.13;;;;;;;24.94;51.54;93770.53;5052140;28;20060;-73
2023/07/06 10:23:19;;;;;;;11.40;8.30;;;;;;;25.05;52.61;93780.13;5052091;28;20123;-74
2023/07/06 10:25:54;;;;;;;10.35;8.95;;;;;;;25.09;49.53;93780.09;5045113;28;20020;-74
2023/07/06 10:28:25;;;;;;;9.35;7.60;;;;;;;24.99;49.18;93775.53;5055132;28;20109;-74
2023/07/06 10:30:55;;;;;;;8.82;7.82;;;;;;;25.09;49.02;93777.34;5052024;28;20028;-73
2023/07/06 10:33:21;;;;;;;10.05;7.85;;;;;;;25.13;50.26;93778.84;5054217;28;20071;-73
2023/07/06 10:35:50;;;;;;;8.85;8.05;;;;;;;25.17;47.98;93774.16;5051093;28;20128;-73
2023/07/06 10:38:16;;;;;;;10.85;7.78;;;;;;;25.17;49.45;93760.56;5054215;28;20611;-73
2023/07/06 10:40:42;;;;;;;8.45;6.88;;;;;;;25.15;47.96;93756.69;5051562;28;20028;-73
2023/07/06 10:43:21;;;;;;;9.60;7.47;;;;;;;25.17;47.22;93771.44;5052594;28;20075;-74
2023/07/06 10:45:56;;;;;;;7.25;6.55;;;;;;;25.28;48.72;93768.56;5053305;28;20051;-72
2023/07/06 10:48:24;;;;;;;8.52;7.72;;;;;;;25.44;50.37;93773.47;5051608;28;20041;-73
2023/07/06 10:50:56;;;;;;;11.93;8.43;;;;;;;25.43;48.45;93775.41;5051376;28;20166;-72
2023/07/06 10:54:16;;;;;;;11.55;8.15;;;;;;;25.37;47.51;93771.59;5051801;28;20032;-73
2023/07/06 10:56:45;;;;;;;8.43;7.55;;;;;;;25.45;49.84;93764.91;5034282;28;20056;-73
2023/07/06 10:59:23;;;;;;;9.88;7.80;;;;;;;25.46;50.13;93766.47;5052251;28;20059;-72
2023/07/06 11:02:06;;;;;;;9.23;7.82;;;;;;;25.52;50.84;93767.53;5046796;28;20039;-72
2023/07/06 11:04:47;;;;;;;10.07;7.47;;;;;;;25.55;50.35;93763.22;5052730;28;20040;-72
2023/07/06 11:07:35;;;;;;;9.18;6.97;;;;;;;25.51;49.34;93746.94;5052402;28;20036;-72
2023/07/06 11:10:13;;;;;;;8.40;7.45;;;;;;;25.62;50.50;93744.81;5048844;28;20058;-74
2023/07/06 11:13:01;;;;;;;9.20;7.00;;;;;;;25.58;48.73;93735.94;5051310;28;20518;-73
2023/07/06 11:15:35;;;;;;;7.25;6.32;;;;;;;25.60;47.52;93739.03;5052725;28;20067;-72
2023/07/06 11:18:33;;;;;;;7.85;7.03;;;;;;;25.68;47.64;93737.75;5044638;28;20507;-73
2023/07/06 11:21:07;;;;;;;8.45;6.88;;;;;;;25.77;51.01;93733.72;5035720;28;20053;-73
2023/07/06 11:23:48;;;;;;;7.85;7.05;;;;;;;25.50;45.56;93718.16;5052070;28;20118;-72
2023/07/06 11:26:56;;;;;;;12.23;6.70;;;;;;;25.47;45.09;93740.00;5052854;28;20535;-72
2023/07/06 11:29:28;;;;;;;15.40;8.02;;;;;;;25.45;44.67;93737.69;5045595;28;20067;-72
2023/07/06 11:32:38;;;;;;;6.80;6.10;;;;;;;25.59;48.44;93748.38;5051537;28;20095;-73
2023/07/06 11:35:09;;;;;;;7.95;6.65;;;;;;;25.59;45.86;93751.09;5027691;28;20532;-74
2023/07/06 11:38:00;;;;;;;6.72;6.13;;;;;;;25.61;44.64;93756.91;5052475;28;20033;-72
2023/07/06 11:40:48;;;;;;;9.60;6.22;;;;;;;25.62;44.23;93753.00;5050327;28;20055;-73
2023/07/06 11:43:38;;;;;;;7.55;5.68;;;;;;;25.66;44.25;93753.72;5051711;28;20607;-73